sensor_id;sensor_type;location;lat;lon;timestamp;pressure;altitude;pressure_sealevel;temperature;humidity
63556;BME280;49700;48.072;7.800;2022-08-19T00:00:13;99135.84;;;20.89;79.58
63556;BME280;49700;48.072;7.800;2022-08-19T00:02:40;99128.66;;;20.90;79.50
63556;BME280;49700;48.072;7.800;2022-08-19T00:05:07;99130.34;;;20.91;79.43
63556;BME280;49700;48.072;7.800;2022-08-19T00:07:33;99129.53;;;20.90;79.44
63556;BME280;49700;48.072;7.800;2022-08-19T00:09:58;99123.50;;;20.88;79.38
63556;BME280;49700;48.072;7.800;2022-08-19T00:12:24;99123.88;;;20.85;79.58
63556;BME280;49700;48.072;7.800;2022-08-19T00:14:49;99120.53;;;20.83;79.47
63556;BME280;49700;48.072;7.800;2022-08-19T00:17:15;99126.03;;;20.82;79.55
63556;BME280;49700;48.072;7.800;2022-08-19T00:19:40;99120.06;;;20.80;79.63
63556;BME280;49700;48.072;7.800;2022-08-19T00:22:06;99122.91;;;20.78;79.52
63556;BME280;49700;48.072;7.800;2022-08-19T00:24:34;99124.06;;;20.75;79.54
63556;BME280;49700;48.072;7.800;2022-08-19T00:27:00;99116.06;;;20.75;79.75
63556;BME280;49700;48.072;7.800;2022-08-19T00:29:27;99111.56;;;20.76;79.58
63556;BME280;49700;48.072;7.800;2022-08-19T00:31:53;99127.56;;;20.76;79.58
63556;BME280;49700;48.072;7.800;2022-08-19T00:34:21;99118.94;;;20.74;79.71
63556;BME280;49700;48.072;7.800;2022-08-19T00:36:47;99126.28;;;20.72;79.59
63556;BME280;49700;48.072;7.800;2022-08-19T00:39:14;99122.94;;;20.70;79.66
63556;BME280;49700;48.072;7.800;2022-08-19T00:41:42;99124.94;;;20.68;79.55
63556;BME280;49700;48.072;7.800;2022-08-19T00:44:14;99132.47;;;20.64;79.46
63556;BME280;49700;48.072;7.800;2022-08-19T00:46:43;99128.47;;;20.60;79.55
63556;BME280;49700;48.072;7.800;2022-08-19T00:49:23;99128.84;;;20.57;79.49
63556;BME280;49700;48.072;7.800;2022-08-19T00:51:54;99131.16;;;20.52;79.56
63556;BME280;49700;48.072;7.800;2022-08-19T00:54:21;99128.00;;;20.48;79.45
63556;BME280;49700;48.072;7.800;2022-08-19T00:56:48;99127.34;;;20.46;79.63
63556;BME280;49700;48.072;7.800;2022-08-19T00:59:15;99130.69;;;20.48;79.29
63556;BME280;49700;48.072;7.800;2022-08-19T01:01:42;99121.66;;;20.49;79.39
63556;BME280;49700;48.072;7.800;2022-08-19T01:04:09;99118.81;;;20.51;79.29
63556;BME280;49700;48.072;7.800;2022-08-19T01:06:36;99113.66;;;20.49;79.22
63556;BME280;49700;48.072;7.800;2022-08-19T01:09:04;99117.53;;;20.47;79.21
63556;BME280;49700;48.072;7.800;2022-08-19T01:11:31;99117.03;;;20.43;79.28
63556;BME280;49700;48.072;7.800;2022-08-19T01:13:58;99121.88;;;20.40;79.11
63556;BME280;49700;48.072;7.800;2022-08-19T01:16:27;99119.38;;;20.38;79.35
63556;BME280;49700;48.072;7.800;2022-08-19T01:18:54;99122.72;;;20.40;79.48
63556;BME280;49700;48.072;7.800;2022-08-19T01:23:50;99117.03;;;20.43;79.52
63556;BME280;49700;48.072;7.800;2022-08-19T01:26:21;99117.84;;;20.44;79.45
63556;BME280;49700;48.072;7.800;2022-08-19T01:28:50;99117.03;;;20.43;79.29
63556;BME280;49700;48.072;7.800;2022-08-19T01:31:19;99114.53;;;20.42;79.31
63556;BME280;49700;48.072;7.800;2022-08-19T01:33:47;99113.06;;;20.39;79.49
63556;BME280;49700;48.072;7.800;2022-08-19T01:36:21;99108.22;;;20.34;79.54
63556;BME280;49700;48.072;7.800;2022-08-19T01:38:48;99117.56;;;20.30;79.68
63556;BME280;49700;48.072;7.800;2022-08-19T01:41:14;99111.75;;;20.27;79.79
63556;BME280;49700;48.072;7.800;2022-08-19T01:43:40;99114.91;;;20.22;79.99
63556;BME280;49700;48.072;7.800;2022-08-19T01:46:05;99115.28;;;20.19;80.14
63556;BME280;49700;48.072;7.800;2022-08-19T01:48:39;99110.59;;;20.21;80.22
63556;BME280;49700;48.072;7.800;2022-08-19T01:51:05;99101.94;;;20.19;80.14
63556;BME280;49700;48.072;7.800;2022-08-19T01:53:31;99101.31;;;20.17;80.25
63556;BME280;49700;48.072;7.800;2022-08-19T01:55:59;99098.44;;;20.19;80.29
63556;BME280;49700;48.072;7.800;2022-08-19T01:58:41;99099.13;;;20.21;80.38
63556;BME280;49700;48.072;7.800;2022-08-19T02:01:11;99098.59;;;20.25;80.03
63556;BME280;49700;48.072;7.800;2022-08-19T02:03:36;99100.72;;;20.30;80.01
63556;BME280;49700;48.072;7.800;2022-08-19T02:06:02;99091.75;;;20.31;79.98
63556;BME280;49700;48.072;7.800;2022-08-19T02:08:33;99097.56;;;20.34;79.99
63556;BME280;49700;48.072;7.800;2022-08-19T02:10:59;99103.56;;;20.37;79.71
63556;BME280;49700;48.072;7.800;2022-08-19T02:13:26;99104.53;;;20.36;79.76
63556;BME280;49700;48.072;7.800;2022-08-19T02:15:51;99103.72;;;20.35;79.56
63556;BME280;49700;48.072;7.800;2022-08-19T02:18:17;99096.06;;;20.32;79.51
63556;BME280;49700;48.072;7.800;2022-08-19T02:20:43;99090.41;;;20.27;79.40
63556;BME280;49700;48.072;7.800;2022-08-19T02:23:10;99091.94;;;20.21;79.69
63556;BME280;49700;48.072;7.800;2022-08-19T02:25:36;99082.44;;;20.19;79.67
63556;BME280;49700;48.072;7.800;2022-08-19T02:28:02;99092.28;;;20.18;79.69
63556;BME280;49700;48.072;7.800;2022-08-19T02:30:28;99088.13;;;20.16;79.76
63556;BME280;49700;48.072;7.800;2022-08-19T02:32:53;99092.78;;;20.14;79.61
63556;BME280;49700;48.072;7.800;2022-08-19T02:35:19;99089.66;;;20.10;79.70
63556;BME280;49700;48.072;7.800;2022-08-19T02:37:44;99086.78;;;20.11;79.74
63556;BME280;49700;48.072;7.800;2022-08-19T02:40:30;99088.47;;;20.13;79.75
63556;BME280;49700;48.072;7.800;2022-08-19T02:42:59;99088.47;;;20.13;79.71
63556;BME280;49700;48.072;7.800;2022-08-19T02:45:24;99084.78;;;20.14;79.70
63556;BME280;49700;48.072;7.800;2022-08-19T02:47:50;99086.78;;;20.11;79.68
63556;BME280;49700;48.072;7.800;2022-08-19T02:50:15;99087.13;;;20.08;79.60
63556;BME280;49700;48.072;7.800;2022-08-19T02:52:41;99090.34;;;20.04;79.99
63556;BME280;49700;48.072;7.800;2022-08-19T02:55:07;99095.16;;;20.00;79.81
63556;BME280;49700;48.072;7.800;2022-08-19T02:57:32;99095.16;;;20.00;79.96
63556;BME280;49700;48.072;7.800;2022-08-19T02:59:59;99094.81;;;20.03;79.99
63556;BME280;49700;48.072;7.800;2022-08-19T03:02:25;99093.28;;;20.09;79.91
63556;BME280;49700;48.072;7.800;2022-08-19T03:04:50;99101.13;;;20.10;79.91
63556;BME280;49700;48.072;7.800;2022-08-19T03:07:16;99095.81;;;20.10;79.85
63556;BME280;49700;48.072;7.800;2022-08-19T03:09:43;99102.31;;;20.08;79.86
63556;BME280;49700;48.072;7.800;2022-08-19T03:12:09;99096.16;;;20.07;80.04
63556;BME280;49700;48.072;7.800;2022-08-19T03:14:35;99099.63;;;20.08;79.98
63556;BME280;49700;48.072;7.800;2022-08-19T03:17:01;99106.31;;;20.12;79.89
63556;BME280;49700;48.072;7.800;2022-08-19T03:19:26;99115.63;;;20.16;79.93
63556;BME280;49700;48.072;7.800;2022-08-19T03:21:52;99116.44;;;20.17;79.86
63556;BME280;49700;48.072;7.800;2022-08-19T03:24:19;99118.13;;;20.18;79.86
63556;BME280;49700;48.072;7.800;2022-08-19T03:26:51;99124.09;;;20.20;79.83
63556;BME280;49700;48.072;7.800;2022-08-19T03:29:18;99125.09;;;20.19;79.67
63556;BME280;49700;48.072;7.800;2022-08-19T03:31:44;99122.44;;;20.19;79.69
63556;BME280;49700;48.072;7.800;2022-08-19T03:34:16;99119.97;;;20.17;79.84
63556;BME280;49700;48.072;7.800;2022-08-19T03:36:43;99119.09;;;20.17;79.78
63556;BME280;49700;48.072;7.800;2022-08-19T03:39:10;99120.13;;;20.16;79.83
63556;BME280;49700;48.072;7.800;2022-08-19T03:41:41;99128.94;;;20.16;79.98
63556;BME280;49700;48.072;7.800;2022-08-19T03:44:06;99129.78;;;20.17;80.02
63556;BME280;49700;48.072;7.800;2022-08-19T03:46:34;99136.94;;;20.16;80.17
63556;BME280;49700;48.072;7.800;2022-08-19T03:49:02;99134.13;;;20.18;79.99
63556;BME280;49700;48.072;7.800;2022-08-19T03:51:34;99137.44;;;20.20;79.92
63556;BME280;49700;48.072;7.800;2022-08-19T03:54:03;99135.63;;;20.20;79.79
63556;BME280;49700;48.072;7.800;2022-08-19T03:56:30;99141.09;;;20.19;79.82
63556;BME280;49700;48.072;7.800;2022-08-19T03:58:57;99135.78;;;20.19;79.89
63556;BME280;49700;48.072;7.800;2022-08-19T04:01:24;99141.78;;;20.21;79.86
63556;BME280;49700;48.072;7.800;2022-08-19T04:03:52;99145.44;;;20.20;79.79
63556;BME280;49700;48.072;7.800;2022-08-19T04:06:19;99151.09;;;20.17;79.83
63556;BME280;49700;48.072;7.800;2022-08-19T04:08:46;99153.13;;;20.15;79.88
63556;BME280;49700;48.072;7.800;2022-08-19T04:11:16;99144.47;;;20.13;80.15
63556;BME280;49700;48.072;7.800;2022-08-19T04:13:42;99158.47;;;20.15;79.94
63556;BME280;49700;48.072;7.800;2022-08-19T04:16:10;99152.28;;;20.14;79.90
63556;BME280;49700;48.072;7.800;2022-08-19T04:18:38;99156.63;;;20.15;79.98
63556;BME280;49700;48.072;7.800;2022-08-19T04:21:04;99159.78;;;20.19;79.97
63556;BME280;49700;48.072;7.800;2022-08-19T04:23:31;99160.44;;;20.21;80.02
63556;BME280;49700;48.072;7.800;2022-08-19T04:25:57;99153.28;;;20.21;79.89
63556;BME280;49700;48.072;7.800;2022-08-19T04:28:23;99148.59;;;20.23;79.92
63556;BME280;49700;48.072;7.800;2022-08-19T04:30:53;99151.75;;;20.27;79.86
63556;BME280;49700;48.072;7.800;2022-08-19T04:33:21;99150.09;;;20.26;79.82
63556;BME280;49700;48.072;7.800;2022-08-19T04:35:49;99149.44;;;20.24;79.66
63556;BME280;49700;48.072;7.800;2022-08-19T04:38:16;99154.28;;;20.20;79.75
63556;BME280;49700;48.072;7.800;2022-08-19T04:40:44;99148.94;;;20.20;79.91
63556;BME280;49700;48.072;7.800;2022-08-19T04:43:28;99142.59;;;20.21;79.90
63556;BME280;49700;48.072;7.800;2022-08-19T04:45:54;99142.44;;;20.23;79.93
63556;BME280;49700;48.072;7.800;2022-08-19T04:48:20;99141.44;;;20.24;79.95
63556;BME280;49700;48.072;7.800;2022-08-19T04:50:56;99151.28;;;20.23;79.82
63556;BME280;49700;48.072;7.800;2022-08-19T04:53:27;99150.59;;;20.21;79.70
63556;BME280;49700;48.072;7.800;2022-08-19T04:55:57;99155.13;;;20.21;79.94
63556;BME280;49700;48.072;7.800;2022-08-19T04:58:25;99164.28;;;20.18;80.00
63556;BME280;49700;48.072;7.800;2022-08-19T05:00:51;99170.78;;;20.16;80.15
63556;BME280;49700;48.072;7.800;2022-08-19T05:03:17;99172.44;;;20.17;80.34
63556;BME280;49700;48.072;7.800;2022-08-19T05:05:47;99170.44;;;20.19;80.20
63556;BME280;49700;48.072;7.800;2022-08-19T05:08:17;99177.13;;;20.23;80.18
63556;BME280;49700;48.072;7.800;2022-08-19T05:10:51;99186.63;;;20.25;80.29
63556;BME280;49700;48.072;7.800;2022-08-19T05:13:18;99190.94;;;20.26;80.18
63556;BME280;49700;48.072;7.800;2022-08-19T05:15:55;99190.75;;;20.28;80.35
63556;BME280;49700;48.072;7.800;2022-08-19T05:18:20;99189.75;;;20.29;80.28
63556;BME280;49700;48.072;7.800;2022-08-19T05:21:07;99195.09;;;20.29;80.23
63556;BME280;49700;48.072;7.800;2022-08-19T05:23:51;99184.59;;;20.27;80.19
63556;BME280;49700;48.072;7.800;2022-08-19T05:26:17;99189.56;;;20.30;80.38
63556;BME280;49700;48.072;7.800;2022-08-19T05:28:42;99185.72;;;20.33;80.13
63556;BME280;49700;48.072;7.800;2022-08-19T05:31:08;99193.44;;;20.36;79.76
63556;BME280;49700;48.072;7.800;2022-08-19T05:33:33;99201.09;;;20.39;80.28
63556;BME280;49700;48.072;7.800;2022-08-19T05:36:00;99196.06;;;20.44;80.16
63556;BME280;49700;48.072;7.800;2022-08-19T05:38:26;99199.38;;;20.46;79.97
63556;BME280;49700;48.072;7.800;2022-08-19T05:40:52;99200.03;;;20.48;79.79
63556;BME280;49700;48.072;7.800;2022-08-19T05:43:17;99199.03;;;20.49;79.83
63556;BME280;49700;48.072;7.800;2022-08-19T05:45:43;99200.53;;;20.52;79.73
63556;BME280;49700;48.072;7.800;2022-08-19T05:48:10;99204.22;;;20.51;79.72
63556;BME280;49700;48.072;7.800;2022-08-19T05:50:38;99204.22;;;20.51;79.64
63556;BME280;49700;48.072;7.800;2022-08-19T05:53:04;99202.56;;;20.50;79.68
63556;BME280;49700;48.072;7.800;2022-08-19T05:55:29;99202.03;;;20.54;79.63
63556;BME280;49700;48.072;7.800;2022-08-19T05:57:55;99201.69;;;20.58;79.44
63556;BME280;49700;48.072;7.800;2022-08-19T06:00:20;99201.53;;;20.59;79.33
63556;BME280;49700;48.072;7.800;2022-08-19T06:02:45;99204.06;;;20.61;79.25
63556;BME280;49700;48.072;7.800;2022-08-19T06:05:11;99208.53;;;20.60;79.15
63556;BME280;49700;48.072;7.800;2022-08-19T06:07:37;99211.03;;;20.62;78.98
63556;BME280;49700;48.072;7.800;2022-08-19T06:10:05;99211.19;;;20.60;79.11
63556;BME280;49700;48.072;7.800;2022-08-19T06:12:32;99219.22;;;20.60;79.00
63556;BME280;49700;48.072;7.800;2022-08-19T06:15:05;99224.38;;;20.62;79.05
63556;BME280;49700;48.072;7.800;2022-08-19T06:17:30;99230.19;;;20.65;79.00
63556;BME280;49700;48.072;7.800;2022-08-19T06:19:56;99228.38;;;20.66;78.76
63556;BME280;49700;48.072;7.800;2022-08-19T06:22:21;99229.03;;;20.68;78.40
63556;BME280;49700;48.072;7.800;2022-08-19T06:24:47;99223.53;;;20.69;78.72
63556;BME280;49700;48.072;7.800;2022-08-19T06:27:12;99225.84;;;20.72;78.53
63556;BME280;49700;48.072;7.800;2022-08-19T06:29:38;99228.53;;;20.72;78.39
63556;BME280;49700;48.072;7.800;2022-08-19T06:32:03;99231.03;;;20.74;78.46
63556;BME280;49700;48.072;7.800;2022-08-19T06:34:31;99228.16;;;20.75;78.59
63556;BME280;49700;48.072;7.800;2022-08-19T06:36:59;99235.66;;;20.80;78.27
63556;BME280;49700;48.072;7.800;2022-08-19T06:39:28;99240.31;;;20.86;78.26
63556;BME280;49700;48.072;7.800;2022-08-19T06:41:58;99239.97;;;20.89;78.07
63556;BME280;49700;48.072;7.800;2022-08-19T06:44:30;99242.28;;;20.92;77.97
63556;BME280;49700;48.072;7.800;2022-08-19T06:47:02;99244.78;;;20.94;77.75
63556;BME280;49700;48.072;7.800;2022-08-19T06:49:28;99249.97;;;20.95;77.82
63556;BME280;49700;48.072;7.800;2022-08-19T06:51:56;99244.63;;;20.95;77.79
63556;BME280;49700;48.072;7.800;2022-08-19T06:54:23;99243.78;;;20.95;77.92
63556;BME280;49700;48.072;7.800;2022-08-19T06:56:48;99244.44;;;20.97;77.70
63556;BME280;49700;48.072;7.800;2022-08-19T06:59:16;99235.75;;;20.95;77.71
63556;BME280;49700;48.072;7.800;2022-08-19T07:01:45;99241.63;;;20.98;77.97
63556;BME280;49700;48.072;7.800;2022-08-19T07:04:16;99247.06;;;21.05;77.67
63556;BME280;49700;48.072;7.800;2022-08-19T07:06:43;99245.22;;;21.06;77.56
63556;BME280;49700;48.072;7.800;2022-08-19T07:09:11;99248.72;;;21.06;77.70
63556;BME280;49700;48.072;7.800;2022-08-19T07:11:37;99232.53;;;21.08;77.53
63556;BME280;49700;48.072;7.800;2022-08-19T07:14:03;99237.53;;;21.11;77.15
63556;BME280;49700;48.072;7.800;2022-08-19T07:16:29;99239.69;;;21.15;76.95
63556;BME280;49700;48.072;7.800;2022-08-19T07:18:55;99241.50;;;21.23;76.88
63556;BME280;49700;48.072;7.800;2022-08-19T07:21:24;99241.59;;;21.30;76.62
63556;BME280;49700;48.072;7.800;2022-08-19T07:23:52;99243.63;;;21.28;76.22
63556;BME280;49700;48.072;7.800;2022-08-19T07:26:21;99244.13;;;21.31;76.51
63556;BME280;49700;48.072;7.800;2022-08-19T07:28:48;99243.09;;;21.40;76.25
63556;BME280;49700;48.072;7.800;2022-08-19T07:31:17;99243.69;;;21.51;76.25
63556;BME280;49700;48.072;7.800;2022-08-19T07:33:47;99242.97;;;21.57;76.17
63556;BME280;49700;48.072;7.800;2022-08-19T07:36:15;99244.75;;;21.64;75.90
63556;BME280;49700;48.072;7.800;2022-08-19T07:38:43;99245.72;;;21.72;75.63
63556;BME280;49700;48.072;7.800;2022-08-19T07:41:11;99244.53;;;21.74;75.49
63556;BME280;49700;48.072;7.800;2022-08-19T07:43:38;99249.16;;;21.80;75.07
63556;BME280;49700;48.072;7.800;2022-08-19T07:46:04;99251.69;;;21.82;75.20
63556;BME280;49700;48.072;7.800;2022-08-19T07:48:29;99251.31;;;21.85;74.89
63556;BME280;49700;48.072;7.800;2022-08-19T07:50:57;99248.09;;;21.90;75.05
63556;BME280;49700;48.072;7.800;2022-08-19T07:53:24;99246.53;;;21.95;74.88
63556;BME280;49700;48.072;7.800;2022-08-19T07:55:51;99251.06;;;21.95;74.46
63556;BME280;49700;48.072;7.800;2022-08-19T07:58:20;99245.69;;;21.95;74.42
63556;BME280;49700;48.072;7.800;2022-08-19T08:00:47;99257.72;;;21.99;74.51
63556;BME280;49700;48.072;7.800;2022-08-19T08:03:16;99258.19;;;22.02;74.66
63556;BME280;49700;48.072;7.800;2022-08-19T08:05:42;99253.28;;;22.06;74.25
63556;BME280;49700;48.072;7.800;2022-08-19T08:08:27;99255.63;;;22.09;74.31
63556;BME280;49700;48.072;7.800;2022-08-19T08:11:12;99256.91;;;22.13;74.05
63556;BME280;49700;48.072;7.800;2022-08-19T08:13:38;99260.25;;;22.15;74.13
63556;BME280;49700;48.072;7.800;2022-08-19T08:16:06;99257.25;;;22.18;73.88
63556;BME280;49700;48.072;7.800;2022-08-19T08:18:32;99266.75;;;22.21;73.82
63556;BME280;49700;48.072;7.800;2022-08-19T08:20:59;99276.63;;;22.20;73.95
63556;BME280;49700;48.072;7.800;2022-08-19T08:23:24;99281.16;;;22.20;73.64
63556;BME280;49700;48.072;7.800;2022-08-19T08:25:54;99282.31;;;22.17;73.91
63556;BME280;49700;48.072;7.800;2022-08-19T08:28:20;99281.66;;;22.15;73.93
63556;BME280;49700;48.072;7.800;2022-08-19T08:30:47;99289.47;;;22.17;74.08
63556;BME280;49700;48.072;7.800;2022-08-19T08:33:14;99297.00;;;22.21;73.89
63556;BME280;49700;48.072;7.800;2022-08-19T08:35:41;99294.78;;;22.25;73.74
63556;BME280;49700;48.072;7.800;2022-08-19T08:38:07;99296.09;;;22.29;73.51
63556;BME280;49700;48.072;7.800;2022-08-19T08:40:43;99300.72;;;22.35;73.36
63556;BME280;49700;48.072;7.800;2022-08-19T08:43:34;99295.88;;;22.39;72.83
63556;BME280;49700;48.072;7.800;2022-08-19T08:48:32;99291.72;;;22.51;72.63
63556;BME280;49700;48.072;7.800;2022-08-19T08:51:02;99292.66;;;22.58;71.96
63556;BME280;49700;48.072;7.800;2022-08-19T08:53:28;99306.63;;;22.68;71.70
63556;BME280;49700;48.072;7.800;2022-08-19T08:55:55;99299.31;;;22.77;71.28
63556;BME280;49700;48.072;7.800;2022-08-19T08:58:32;99301.63;;;22.80;70.87
63556;BME280;49700;48.072;7.800;2022-08-19T09:01:10;99304.09;;;22.82;70.74
63556;BME280;49700;48.072;7.800;2022-08-19T09:03:37;99309.38;;;22.90;69.83
63556;BME280;49700;48.072;7.800;2022-08-19T09:06:22;99313.09;;;22.89;69.57
63556;BME280;49700;48.072;7.800;2022-08-19T09:11:40;99318.44;;;22.89;69.50
63556;BME280;49700;48.072;7.800;2022-08-19T09:16:44;99319.69;;;23.01;69.30
63556;BME280;49700;48.072;7.800;2022-08-19T09:19:09;99322.44;;;23.08;69.02
63556;BME280;49700;48.072;7.800;2022-08-19T09:21:35;99322.34;;;23.16;68.95
63556;BME280;49700;48.072;7.800;2022-08-19T09:24:02;99328.44;;;23.25;69.03
63556;BME280;49700;48.072;7.800;2022-08-19T09:26:30;99323.94;;;23.25;68.76
63556;BME280;49700;48.072;7.800;2022-08-19T09:28:58;99331.38;;;23.30;68.32
63556;BME280;49700;48.072;7.800;2022-08-19T09:31:27;99322.78;;;23.34;67.92
63556;BME280;49700;48.072;7.800;2022-08-19T09:33:53;99326.56;;;23.40;66.58
63556;BME280;49700;48.072;7.800;2022-08-19T09:36:23;99325.31;;;23.36;66.30
63556;BME280;49700;48.072;7.800;2022-08-19T09:38:50;99335.44;;;23.40;66.26
63556;BME280;49700;48.072;7.800;2022-08-19T09:41:19;99333.41;;;23.42;66.31
63556;BME280;49700;48.072;7.800;2022-08-19T09:43:46;99330.56;;;23.44;66.40
63556;BME280;49700;48.072;7.800;2022-08-19T09:46:13;99331.19;;;23.46;66.50
63556;BME280;49700;48.072;7.800;2022-08-19T09:48:39;99331.28;;;23.53;66.35
63556;BME280;49700;48.072;7.800;2022-08-19T09:51:07;99337.72;;;23.58;66.15
63556;BME280;49700;48.072;7.800;2022-08-19T09:53:36;99336.31;;;23.62;65.59
63556;BME280;49700;48.072;7.800;2022-08-19T09:56:05;99345.66;;;23.67;65.42
63556;BME280;49700;48.072;7.800;2022-08-19T09:58:32;99338.25;;;23.69;65.29
63556;BME280;49700;48.072;7.800;2022-08-19T10:00:59;99341.88;;;23.76;65.02
63556;BME280;49700;48.072;7.800;2022-08-19T10:03:26;99343.59;;;23.83;64.53
63556;BME280;49700;48.072;7.800;2022-08-19T10:05:52;99338.13;;;23.92;64.21
63556;BME280;49700;48.072;7.800;2022-08-19T10:08:33;99344.97;;;23.94;64.04
63556;BME280;49700;48.072;7.800;2022-08-19T10:10:59;99335.91;;;23.95;64.45
63556;BME280;49700;48.072;7.800;2022-08-19T10:13:26;99339.47;;;24.02;64.07
63556;BME280;49700;48.072;7.800;2022-08-19T10:15:54;99340.38;;;24.10;64.01
63556;BME280;49700;48.072;7.800;2022-08-19T10:18:21;99336.91;;;24.16;64.15
63556;BME280;49700;48.072;7.800;2022-08-19T10:20:48;99341.31;;;24.23;63.89
63556;BME280;49700;48.072;7.800;2022-08-19T10:23:15;99335.19;;;24.29;63.66
63556;BME280;49700;48.072;7.800;2022-08-19T10:25:41;99335.44;;;24.35;63.22
63556;BME280;49700;48.072;7.800;2022-08-19T10:28:07;99336.13;;;24.43;62.74
63556;BME280;49700;48.072;7.800;2022-08-19T10:30:35;99341.59;;;24.50;62.36
63556;BME280;49700;48.072;7.800;2022-08-19T10:33:00;99340.16;;;24.54;61.68
63556;BME280;49700;48.072;7.800;2022-08-19T10:35:25;99341.00;;;24.55;61.78
63556;BME280;49700;48.072;7.800;2022-08-19T10:37:53;99346.34;;;24.55;61.65
63556;BME280;49700;48.072;7.800;2022-08-19T10:40:19;99344.31;;;24.57;61.88
63556;BME280;49700;48.072;7.800;2022-08-19T10:42:44;99339.16;;;24.55;61.90
63556;BME280;49700;48.072;7.800;2022-08-19T10:45:10;99334.22;;;24.59;61.77
63556;BME280;49700;48.072;7.800;2022-08-19T10:47:35;99322.75;;;24.71;61.49
63556;BME280;49700;48.072;7.800;2022-08-19T10:50:02;99324.50;;;24.86;61.18
63556;BME280;49700;48.072;7.800;2022-08-19T10:52:48;99325.22;;;25.01;60.79
63556;BME280;49700;48.072;7.800;2022-08-19T10:55:14;99322.31;;;25.03;60.30
63556;BME280;49700;48.072;7.800;2022-08-19T10:57:58;99326.06;;;25.08;60.27
63556;BME280;49700;48.072;7.800;2022-08-19T11:00:24;99324.91;;;25.17;59.78
63556;BME280;49700;48.072;7.800;2022-08-19T11:02:51;99327.00;;;25.22;59.69
63556;BME280;49700;48.072;7.800;2022-08-19T11:05:16;99326.22;;;25.35;59.51
63556;BME280;49700;48.072;7.800;2022-08-19T11:07:43;99320.91;;;25.48;59.24
63556;BME280;49700;48.072;7.800;2022-08-19T11:10:11;99321.78;;;25.62;58.39
63556;BME280;49700;48.072;7.800;2022-08-19T11:12:37;99319.13;;;25.75;57.98
63556;BME280;49700;48.072;7.800;2022-08-19T11:15:07;99327.22;;;25.82;57.43
63556;BME280;49700;48.072;7.800;2022-08-19T11:17:34;99319.75;;;25.77;57.40
63556;BME280;49700;48.072;7.800;2022-08-19T11:20:01;99319.34;;;25.80;57.44
63556;BME280;49700;48.072;7.800;2022-08-19T11:22:29;99327.41;;;25.80;57.20
63556;BME280;49700;48.072;7.800;2022-08-19T11:24:54;99320.22;;;25.88;56.92
63556;BME280;49700;48.072;7.800;2022-08-19T11:27:20;99320.22;;;25.94;56.49
63556;BME280;49700;48.072;7.800;2022-08-19T11:29:46;99313.00;;;26.01;56.04
63556;BME280;49700;48.072;7.800;2022-08-19T11:32:11;99316.97;;;26.12;55.86
63556;BME280;49700;48.072;7.800;2022-08-19T11:34:38;99321.91;;;26.15;55.75
63556;BME280;49700;48.072;7.800;2022-08-19T11:37:05;99321.72;;;26.10;55.41
63556;BME280;49700;48.072;7.800;2022-08-19T11:39:33;99310.72;;;26.05;56.38
63556;BME280;49700;48.072;7.800;2022-08-19T11:41:59;99316.75;;;26.07;55.90
63556;BME280;49700;48.072;7.800;2022-08-19T11:44:26;99312.59;;;26.18;55.48
63556;BME280;49700;48.072;7.800;2022-08-19T11:46:51;99311.34;;;26.14;54.11
63556;BME280;49700;48.072;7.800;2022-08-19T11:49:18;99308.84;;;25.92;53.00
63556;BME280;49700;48.072;7.800;2022-08-19T11:51:45;99308.59;;;25.74;54.07
63556;BME280;49700;48.072;7.800;2022-08-19T11:54:12;99313.94;;;25.67;54.77
63556;BME280;49700;48.072;7.800;2022-08-19T11:56:39;99310.59;;;25.65;54.96
63556;BME280;49700;48.072;7.800;2022-08-19T11:59:05;99312.28;;;25.66;56.01
63556;BME280;49700;48.072;7.800;2022-08-19T12:01:30;99314.53;;;25.63;56.40
63556;BME280;49700;48.072;7.800;2022-08-19T12:03:57;99311.66;;;25.64;56.27
63556;BME280;49700;48.072;7.800;2022-08-19T12:06:25;99312.09;;;25.74;56.34
63556;BME280;49700;48.072;7.800;2022-08-19T12:08:57;99313.19;;;25.87;56.04
63556;BME280;49700;48.072;7.800;2022-08-19T12:11:23;99308.03;;;25.98;56.02
63556;BME280;49700;48.072;7.800;2022-08-19T12:13:52;99309.50;;;26.01;55.19
63556;BME280;49700;48.072;7.800;2022-08-19T12:16:20;99314.25;;;26.05;55.52
63556;BME280;49700;48.072;7.800;2022-08-19T12:18:47;99308.25;;;26.10;54.78
63556;BME280;49700;48.072;7.800;2022-08-19T12:21:14;99304.13;;;26.21;54.52
63556;BME280;49700;48.072;7.800;2022-08-19T12:23:40;99302.88;;;26.23;53.97
63556;BME280;49700;48.072;7.800;2022-08-19T12:26:06;99305.34;;;26.32;53.04
63556;BME280;49700;48.072;7.800;2022-08-19T12:28:31;99312.81;;;26.30;53.30
63556;BME280;49700;48.072;7.800;2022-08-19T12:30:57;99307.63;;;26.21;52.68
63556;BME280;49700;48.072;7.800;2022-08-19T12:33:23;99309.91;;;26.24;52.49
63556;BME280;49700;48.072;7.800;2022-08-19T12:35:51;99312.38;;;26.33;52.25
63556;BME280;49700;48.072;7.800;2022-08-19T12:38:17;99313.44;;;26.32;52.31
63556;BME280;49700;48.072;7.800;2022-08-19T12:40:46;99300.59;;;26.27;52.63
63556;BME280;49700;48.072;7.800;2022-08-19T12:43:13;99300.41;;;26.29;52.24
63556;BME280;49700;48.072;7.800;2022-08-19T12:45:41;99308.25;;;26.30;52.13
63556;BME280;49700;48.072;7.800;2022-08-19T12:48:08;99302.69;;;26.38;52.21
63556;BME280;49700;48.072;7.800;2022-08-19T12:50:33;99295.63;;;26.44;51.96
63556;BME280;49700;48.072;7.800;2022-08-19T12:52:58;99302.06;;;26.49;51.79
63556;BME280;49700;48.072;7.800;2022-08-19T12:55:24;99301.25;;;26.56;51.29
63556;BME280;49700;48.072;7.800;2022-08-19T12:57:50;99300.63;;;26.60;51.58
63556;BME280;49700;48.072;7.800;2022-08-19T13:00:19;99302.88;;;26.70;51.35
63556;BME280;49700;48.072;7.800;2022-08-19T13:02:49;99300.59;;;26.74;51.11
63556;BME280;49700;48.072;7.800;2022-08-19T13:05:18;99291.28;;;26.76;51.10
63556;BME280;49700;48.072;7.800;2022-08-19T13:07:48;99291.66;;;26.80;50.56
63556;BME280;49700;48.072;7.800;2022-08-19T13:10:16;99295.38;;;26.79;50.46
63556;BME280;49700;48.072;7.800;2022-08-19T13:12:47;99298.50;;;26.76;50.44